M/y Big Sky — ZGAH4 — position and weather

sailwx.info

Track history (hours):
 
Tides and Currents Weather Stations Pressure Air Temp Water Temp Dewpoint Dewpoint Depression Visibility Wind Speed Wind Dir Waves Ship Positions

M/y Big Sky

Last reported at 2017-Jul-24 13:00 UTC. Time now 2017-Jul-25 16:44 UTC.
Position N 43°21' E 007°00'.

Length 48 m; draft 2.5 m.

Type: Pleasure craft. MMSI: 319016800.

Date/timePositionNaut miles runAvg speedWind from/ knotsBaromVisibWave heightAir tempDewpointWater temp
2017-Jul-24 13:00N 43°21' E 007°00'69 1.8
2017-Jul-22 21:48N 43°01' E 005°29'412.6
2017-Jul-22 21:28N 42°58' E 005°25'612.5
2017-Jul-22 20:58N 42°53' E 005°20'712.5
2017-Jul-22 20:26N 42°48' E 005°14'912.5
2017-Jul-22 19:42N 42°41' E 005°06'312.7
2017-Jul-22 19:30N 42°39' E 005°04'712.6
2017-Jul-22 18:58N 42°34' E 004°58'612.9
2017-Jul-22 18:28N 42°29' E 004°53'913.0
2017-Jul-22 17:46N 42°21' E 004°46'1212.9
2017-Jul-22 16:49N 42°12' E 004°35'413.1
2017-Jul-22 16:31N 42°09' E 004°31'713.1
2017-Jul-22 16:00N 42°04' E 004°25'713.3
2017-Jul-22 15:28N 41°58' E 004°19'7912.8
2017-Jul-22 09:17N 40°57' E 003°12'412.2
2017-Jul-22 08:59N 40°54' E 003°09'612.7
2017-Jul-22 08:31N 40°50' E 003°05'612.8
2017-Jul-22 08:01N 40°45' E 002°59'712.9
2017-Jul-22 07:30N 40°39' E 002°54'612.9
2017-Jul-22 07:01N 40°35' E 002°49'612.8
2017-Jul-22 06:31N 40°30' E 002°43'612.7
2017-Jul-22 06:00N 40°25' E 002°38'612.6
2017-Jul-22 05:30N 40°20' E 002°33'612.5
2017-Jul-22 05:00N 40°15' E 002°28'612.7
2017-Jul-22 04:31N 40°10' E 002°22'612.7
2017-Jul-22 04:00N 40°05' E 002°17'612.8
2017-Jul-22 03:30N 40°00' E 002°12'713.1
2017-Jul-22 03:00N 39°55' E 002°06'613.1
2017-Jul-22 02:31N 39°50' E 002°01'612.8
2017-Jul-22 02:00N 39°45' E 001°55'1112.9
2017-Jul-22 01:11N 39°37' E 001°47'213.1
2017-Jul-22 00:59N 39°35' E 001°45'613.2
2017-Jul-22 00:31N 39°30' E 001°40'713.3
2017-Jul-21 23:59N 39°25' E 001°34'  
2017-Jul-19 03:51N 38°11' E 000°53'1211.7
2017-Jul-19 02:49N 38°17' E 001°05'2511.9
2017-Jul-19 00:42N 38°32' E 001°32'211.4
2017-Jul-19 00:30N 38°33' E 001°34'611.3
2017-Jul-19 00:00N 38°37' E 001°40'611.2
2017-Jul-18 23:30N 38°41' E 001°45'611.2
2017-Jul-18 22:59N 38°45' E 001°50'611.3
2017-Jul-18 22:26N 38°50' E 001°55'511.2
2017-Jul-18 22:00N 38°53' E 001°59'611.2
2017-Jul-18 21:30N 38°57' E 002°04'611.1
2017-Jul-18 21:00N 39°01' E 002°09'511.1
2017-Jul-18 20:30N 39°06' E 002°14'611.2
2017-Jul-18 20:00N 39°09' E 002°19'611.3
2017-Jul-18 19:30N 39°14' E 002°24'611.3
2017-Jul-18 19:00N 39°18' E 002°28'510.4
2017-Jul-18 18:30N 39°22' E 002°33'3 6.3
2017-Jul-18 18:00N 39°24' E 002°36'5 9.5
2017-Jul-18 17:30N 39°29' E 002°38'5 9.6
2017-Jul-18 17:00N 39°33' E 002°39'1 1.3
2017-Jul-18 16:30N 39°34' E 002°38'0 0.0
2017-Jul-18 16:00N 39°34' E 002°38'0 0.0
2017-Jul-18 15:30N 39°34' E 002°38'0 0.0
2017-Jul-18 15:00N 39°34' E 002°38'0 0.0
2017-Jul-18 13:57N 39°34' E 002°38'0 0.0
2017-Jul-18 13:30N 39°34' E 002°38'0 0.0
2017-Jul-18 13:00N 39°34' E 002°38'0 0.0
2017-Jul-18 12:30N 39°34' E 002°38'0 0.0
2017-Jul-18 12:00N 39°34' E 002°38'0 0.0
2017-Jul-18 11:18N 39°34' E 002°38'0 0.0
2017-Jul-18 11:00N 39°34' E 002°38'0 0.0
2017-Jul-18 10:30N 39°34' E 002°38'0 0.0
2017-Jul-18 10:00N 39°34' E 002°38'0 0.0
2017-Jul-18 09:30N 39°34' E 002°38'0 0.0
2017-Jul-18 09:00N 39°34' E 002°38'0 0.0
2017-Jul-17 19:18N 39°34' E 002°38'0 0.0
2017-Jul-17 19:00N 39°34' E 002°38'0 0.0
2017-Jul-17 18:30N 39°34' E 002°38'0 0.0
2017-Jul-17 18:00N 39°34' E 002°38'0 0.0
2017-Jul-17 17:30N 39°34' E 002°38'0 0.0
2017-Jul-17 17:00N 39°34' E 002°38'0 0.0
2017-Jul-17 16:30N 39°34' E 002°38'0 0.0
2017-Jul-17 16:00N 39°34' E 002°38'0 0.0
2017-Jul-17 15:30N 39°34' E 002°38'0 0.0
2017-Jul-17 15:00N 39°34' E 002°38'0 0.0
2017-Jul-17 14:30N 39°34' E 002°38'0 0.0
2017-Jul-17 14:00N 39°34' E 002°38'0 0.0
2017-Jul-17 13:24N 39°34' E 002°38'0 0.0
2017-Jul-17 13:00N 39°34' E 002°38'0 0.0
2017-Jul-17 12:30N 39°34' E 002°38'  
Track history (hours):
 
Tides and Currents Weather Stations Pressure Air Temp Water Temp Dewpoint Dewpoint Depression Visibility Wind Speed Wind Dir Waves Ship Positions

M/y Big Sky

Last reported at 2017-Jul-24 13:00 UTC. Time now 2017-Jul-25 16:44 UTC.
Position N 43°21' E 007°00'.

Length 48 m; draft 2.5 m.

Type: Pleasure craft. MMSI: 319016800.

Date/timePositionNaut miles runAvg speedWind from/ knotsBaromVisibWave heightAir tempDewpointWater temp
2017-Jul-24 13:00N 43°21' E 007°00'69 1.8
2017-Jul-22 21:48N 43°01' E 005°29'412.6
2017-Jul-22 21:28N 42°58' E 005°25'612.5
2017-Jul-22 20:58N 42°53' E 005°20'712.5
2017-Jul-22 20:26N 42°48' E 005°14'912.5
2017-Jul-22 19:42N 42°41' E 005°06'312.7
2017-Jul-22 19:30N 42°39' E 005°04'712.6
2017-Jul-22 18:58N 42°34' E 004°58'612.9
2017-Jul-22 18:28N 42°29' E 004°53'913.0
2017-Jul-22 17:46N 42°21' E 004°46'1212.9
2017-Jul-22 16:49N 42°12' E 004°35'413.1
2017-Jul-22 16:31N 42°09' E 004°31'713.1
2017-Jul-22 16:00N 42°04' E 004°25'713.3
2017-Jul-22 15:28N 41°58' E 004°19'7912.8
2017-Jul-22 09:17N 40°57' E 003°12'412.2
2017-Jul-22 08:59N 40°54' E 003°09'612.7
2017-Jul-22 08:31N 40°50' E 003°05'612.8
2017-Jul-22 08:01N 40°45' E 002°59'712.9
2017-Jul-22 07:30N 40°39' E 002°54'612.9
2017-Jul-22 07:01N 40°35' E 002°49'612.8
2017-Jul-22 06:31N 40°30' E 002°43'612.7
2017-Jul-22 06:00N 40°25' E 002°38'612.6
2017-Jul-22 05:30N 40°20' E 002°33'612.5
2017-Jul-22 05:00N 40°15' E 002°28'612.7
2017-Jul-22 04:31N 40°10' E 002°22'612.7
2017-Jul-22 04:00N 40°05' E 002°17'612.8
2017-Jul-22 03:30N 40°00' E 002°12'713.1
2017-Jul-22 03:00N 39°55' E 002°06'613.1
2017-Jul-22 02:31N 39°50' E 002°01'612.8
2017-Jul-22 02:00N 39°45' E 001°55'1112.9
2017-Jul-22 01:11N 39°37' E 001°47'213.1
2017-Jul-22 00:59N 39°35' E 001°45'613.2
2017-Jul-22 00:31N 39°30' E 001°40'713.3
2017-Jul-21 23:59N 39°25' E 001°34'  
2017-Jul-19 03:51N 38°11' E 000°53'1211.7
2017-Jul-19 02:49N 38°17' E 001°05'2511.9
2017-Jul-19 00:42N 38°32' E 001°32'211.4
2017-Jul-19 00:30N 38°33' E 001°34'611.3
2017-Jul-19 00:00N 38°37' E 001°40'611.2
2017-Jul-18 23:30N 38°41' E 001°45'611.2
2017-Jul-18 22:59N 38°45' E 001°50'611.3
2017-Jul-18 22:26N 38°50' E 001°55'511.2
2017-Jul-18 22:00N 38°53' E 001°59'611.2
2017-Jul-18 21:30N 38°57' E 002°04'611.1
2017-Jul-18 21:00N 39°01' E 002°09'511.1
2017-Jul-18 20:30N 39°06' E 002°14'611.2
2017-Jul-18 20:00N 39°09' E 002°19'611.3
2017-Jul-18 19:30N 39°14' E 002°24'611.3
2017-Jul-18 19:00N 39°18' E 002°28'510.4
2017-Jul-18 18:30N 39°22' E 002°33'3 6.3
2017-Jul-18 18:00N 39°24' E 002°36'5 9.5
2017-Jul-18 17:30N 39°29' E 002°38'5 9.6
2017-Jul-18 17:00N 39°33' E 002°39'1 1.3
2017-Jul-18 16:30N 39°34' E 002°38'0 0.0
2017-Jul-18 16:00N 39°34' E 002°38'0 0.0
2017-Jul-18 15:30N 39°34' E 002°38'0 0.0
2017-Jul-18 15:00N 39°34' E 002°38'0 0.0
2017-Jul-18 13:57N 39°34' E 002°38'0 0.0
2017-Jul-18 13:30N 39°34' E 002°38'0 0.0
2017-Jul-18 13:00N 39°34' E 002°38'0 0.0
2017-Jul-18 12:30N 39°34' E 002°38'0 0.0
2017-Jul-18 12:00N 39°34' E 002°38'0 0.0
2017-Jul-18 11:18N 39°34' E 002°38'0 0.0
2017-Jul-18 11:00N 39°34' E 002°38'0 0.0
2017-Jul-18 10:30N 39°34' E 002°38'0 0.0
2017-Jul-18 10:00N 39°34' E 002°38'0 0.0
2017-Jul-18 09:30N 39°34' E 002°38'0 0.0
2017-Jul-18 09:00N 39°34' E 002°38'0 0.0
2017-Jul-17 19:18N 39°34' E 002°38'0 0.0
2017-Jul-17 19:00N 39°34' E 002°38'0 0.0
2017-Jul-17 18:30N 39°34' E 002°38'0 0.0
2017-Jul-17 18:00N 39°34' E 002°38'0 0.0
2017-Jul-17 17:30N 39°34' E 002°38'0 0.0
2017-Jul-17 17:00N 39°34' E 002°38'0 0.0
2017-Jul-17 16:30N 39°34' E 002°38'0 0.0
2017-Jul-17 16:00N 39°34' E 002°38'0 0.0
2017-Jul-17 15:30N 39°34' E 002°38'0 0.0
2017-Jul-17 15:00N 39°34' E 002°38'0 0.0
2017-Jul-17 14:30N 39°34' E 002°38'0 0.0
2017-Jul-17 14:00N 39°34' E 002°38'0 0.0
2017-Jul-17 13:24N 39°34' E 002°38'0 0.0
2017-Jul-17 13:00N 39°34' E 002°38'0 0.0
2017-Jul-17 12:30N 39°34' E 002°38'  

Dump ship's entire track history